createdAt,value
2016-07-26T00:00:07.080Z,18.97
2016-07-26T00:01:07.161Z,18.93
2016-07-26T00:02:07.016Z,18.99
2016-07-26T00:03:07.080Z,18.99
2016-07-26T00:04:07.168Z,18.99
2016-07-26T00:05:07.089Z,18.97
2016-07-26T00:06:07.104Z,19.09
2016-07-26T00:07:07.115Z,19.07
2016-07-26T00:08:07.035Z,19.05
2016-07-26T00:09:07.105Z,19.13
2016-07-26T00:10:07.039Z,18.99
2016-07-26T00:11:07.102Z,19.06
2016-07-26T00:12:07.863Z,19.02
2016-07-26T00:13:07.048Z,18.97
2016-07-26T00:14:07.205Z,18.91
2016-07-26T00:15:07.063Z,18.91
2016-07-26T00:16:07.138Z,18.91
2016-07-26T00:17:07.130Z,18.91
2016-07-26T00:18:07.126Z,18.94
2016-07-26T00:19:07.067Z,18.86
2016-07-26T00:20:07.130Z,18.99
2016-07-26T00:21:07.234Z,18.91
2016-07-26T00:22:07.136Z,18.99
2016-07-26T00:23:07.126Z,18.87
2016-07-26T00:24:07.148Z,18.87
2016-07-26T00:25:07.063Z,18.84
2016-07-26T00:26:07.143Z,18.87
2016-07-26T00:27:07.161Z,18.84
2016-07-26T00:28:07.079Z,18.91
2016-07-26T00:29:07.220Z,18.82
2016-07-26T00:30:07.081Z,18.79
2016-07-26T00:31:07.079Z,18.9
2016-07-26T00:32:07.234Z,18.96
2016-07-26T00:33:07.191Z,18.84
2016-07-26T00:34:07.258Z,18.9
2016-07-26T00:35:07.184Z,18.86
2016-07-26T00:36:07.192Z,18.9
2016-07-26T00:37:07.248Z,18.82
2016-07-26T00:38:07.181Z,18.96
2016-07-26T00:39:17.085Z,18.9
2016-07-26T00:40:07.189Z,18.9
2016-07-26T00:41:07.200Z,18.96
2016-07-26T00:42:07.111Z,18.87
2016-07-26T00:43:07.265Z,18.94
2016-07-26T00:44:07.204Z,18.94
2016-07-26T00:45:07.137Z,19.05
2016-07-26T00:46:07.213Z,18.93
2016-07-26T00:47:07.201Z,18.97
2016-07-26T00:48:07.141Z,18.91
2016-07-26T00:49:07.424Z,18.91
2016-07-26T00:50:07.228Z,18.96
2016-07-26T00:51:07.218Z,18.89
2016-07-26T00:52:07.245Z,18.93
2016-07-26T00:53:07.173Z,18.84
2016-07-26T00:54:07.303Z,18.96
2016-07-26T00:55:07.161Z,18.86
2016-07-26T00:56:07.238Z,18.91
2016-07-26T00:57:07.332Z,18.79
2016-07-26T00:58:07.246Z,18.86
2016-07-26T00:59:07.327Z,18.84
2016-07-26T01:00:07.239Z,18.78
2016-07-26T01:01:07.312Z,18.81
2016-07-26T01:02:07.252Z,18.82
2016-07-26T01:03:07.255Z,18.89
2016-07-26T01:04:07.277Z,18.84
2016-07-26T01:05:07.255Z,18.86
2016-07-26T01:06:07.340Z,18.89
2016-07-26T01:07:07.270Z,18.86
2016-07-26T01:08:07.346Z,18.84
2016-07-26T01:09:07.256Z,18.93
2016-07-26T01:10:07.468Z,18.81
2016-07-26T01:11:07.218Z,18.94
2016-07-26T01:12:07.283Z,18.86
2016-07-26T01:13:07.299Z,18.97
2016-07-26T01:14:07.267Z,18.9
2016-07-26T01:15:07.371Z,18.96
2016-07-26T01:16:07.285Z,18.84
2016-07-26T01:17:07.322Z,18.89
2016-07-26T01:18:07.236Z,18.82
2016-07-26T01:19:07.307Z,18.84
2016-07-26T01:20:07.301Z,18.78
2016-07-26T01:21:07.380Z,18.81
2016-07-26T01:22:07.382Z,18.74
2016-07-26T01:23:07.311Z,18.84
2016-07-26T01:24:07.370Z,18.87
2016-07-26T01:25:07.232Z,18.75
2016-07-26T01:26:07.317Z,18.76
2016-07-26T01:27:07.389Z,18.71
2016-07-26T01:28:07.414Z,18.68
2016-07-26T01:29:07.271Z,18.6
2016-07-26T01:30:07.417Z,18.65
2016-07-26T01:31:07.353Z,18.59
2016-07-26T01:32:07.343Z,18.57
2016-07-26T01:33:07.276Z,18.51
2016-07-26T01:34:07.336Z,18.53
2016-07-26T01:35:07.349Z,18.5
2016-07-26T01:36:07.283Z,18.35
2016-07-26T01:37:07.375Z,18.32
2016-07-26T01:38:07.430Z,18.38
2016-07-26T01:39:07.297Z,18.29
2016-07-26T01:40:07.363Z,18.23
2016-07-26T01:41:07.391Z,18.29
2016-07-26T01:42:07.318Z,18.32
2016-07-26T01:43:07.305Z,18.29
2016-07-26T01:44:07.361Z,18.21
2016-07-26T01:45:07.398Z,18.32
2016-07-26T01:46:07.303Z,18.19
2016-07-26T01:47:07.383Z,18.24
2016-07-26T01:48:07.475Z,18.23
2016-07-26T01:49:07.316Z,18.21
2016-07-26T01:50:07.311Z,18.29
2016-07-26T01:51:07.396Z,18.23
2016-07-26T01:52:07.478Z,18.27
2016-07-26T01:53:07.426Z,18.11
2016-07-26T01:54:07.341Z,18.31
2016-07-26T01:55:07.484Z,18.19
2016-07-26T01:56:07.394Z,18.32
2016-07-26T01:57:07.340Z,18.26
2016-07-26T01:58:07.450Z,18.23
2016-07-26T01:59:07.512Z,18.17
2016-07-26T02:00:07.432Z,18.17
2016-07-26T02:01:07.348Z,18.27
2016-07-26T02:02:07.518Z,18.17
2016-07-26T02:03:07.442Z,18.26
2016-07-26T02:04:07.501Z,18.16
2016-07-26T02:05:07.521Z,18.16
2016-07-26T02:06:07.426Z,18.11
2016-07-26T02:07:07.448Z,18.19
2016-07-26T02:08:07.433Z,18.16
2016-07-26T02:09:07.511Z,18.11
2016-07-26T02:10:07.554Z,18.11
2016-07-26T02:11:07.540Z,18.1
2016-07-26T02:12:07.526Z,18.13
2016-07-26T02:13:07.448Z,18.13
2016-07-26T02:14:07.531Z,18.16
2016-07-26T02:15:07.549Z,18.13
2016-07-26T02:16:07.384Z,18.11
2016-07-26T02:17:07.450Z,18.14
2016-07-26T02:18:07.519Z,18.05
2016-07-26T02:19:07.489Z,18.05
2016-07-26T02:20:07.471Z,18.03
2016-07-26T02:21:07.480Z,18.02
2016-07-26T02:22:07.464Z,18.03
2016-07-26T02:23:07.545Z,18.01
2016-07-26T02:24:07.496Z,17.98
2016-07-26T02:25:07.557Z,17.98
2016-07-26T02:26:07.409Z,17.96
2016-07-26T02:27:07.558Z,17.98
2016-07-26T02:28:07.523Z,17.98
2016-07-26T02:29:07.504Z,17.95
2016-07-26T02:30:07.494Z,17.94
2016-07-26T02:31:07.437Z,17.99
2016-07-26T02:32:07.497Z,17.98
2016-07-26T02:33:07.510Z,18.06
2016-07-26T02:35:07.449Z,18.03
2016-07-26T02:36:07.591Z,17.98
2016-07-26T02:37:07.595Z,18.02
2016-07-26T02:38:07.621Z,18.02
2016-07-26T02:39:07.533Z,18.02
2016-07-26T02:40:07.651Z,18.01
2016-07-26T02:41:07.526Z,18.01
2016-07-26T02:42:07.542Z,17.96
2016-07-26T02:43:07.534Z,17.98
2016-07-26T02:44:07.615Z,18.03
2016-07-26T02:45:07.471Z,18.01
2016-07-26T02:46:07.549Z,17.99
2016-07-26T02:47:07.558Z,17.99
2016-07-26T02:48:07.532Z,17.99
2016-07-26T02:49:07.589Z,17.99
2016-07-26T02:50:07.588Z,17.96
2016-07-26T02:51:07.690Z,17.94
2016-07-26T02:52:07.633Z,17.88
2016-07-26T02:53:07.502Z,17.88
2016-07-26T02:54:07.565Z,17.79
2016-07-26T02:55:07.594Z,17.76
2016-07-26T02:56:07.571Z,17.77
2016-07-26T02:57:07.574Z,17.74
2016-07-26T02:58:07.574Z,17.68
2016-07-26T02:59:07.507Z,17.62
2016-07-26T03:00:07.655Z,17.58
2016-07-26T03:01:07.575Z,17.63
2016-07-26T03:02:07.736Z,17.49
2016-07-26T03:03:07.560Z,17.57
2016-07-26T03:04:07.642Z,17.58
2016-07-26T03:05:07.639Z,17.54
2016-07-26T03:06:07.539Z,17.54
2016-07-26T03:07:07.626Z,17.5
2016-07-26T03:08:07.543Z,17.46
2016-07-26T03:09:07.631Z,17.46
2016-07-26T03:10:07.625Z,17.46
2016-07-26T03:11:07.611Z,17.5
2016-07-26T03:12:07.622Z,17.46
2016-07-26T03:13:07.630Z,17.49
2016-07-26T03:14:07.630Z,17.46
2016-07-26T03:15:07.638Z,17.46
2016-07-26T03:16:07.623Z,17.5
2016-07-26T03:17:07.702Z,17.47
2016-07-26T03:18:07.713Z,17.45
2016-07-26T03:19:07.627Z,17.36
2016-07-26T03:20:07.654Z,17.42
2016-07-26T03:21:07.649Z,17.45
2016-07-26T03:22:07.720Z,17.32
2016-07-26T03:23:07.723Z,17.28
2016-07-26T03:24:07.670Z,17.3
2016-07-26T03:25:07.671Z,17.27
2016-07-26T03:26:07.597Z,17.3
2016-07-26T03:27:07.670Z,17.25
2016-07-26T03:28:07.665Z,17.21
2016-07-26T03:29:07.661Z,17.21
2016-07-26T03:30:07.594Z,17.17
2016-07-26T03:31:07.695Z,17.17
2016-07-26T03:32:07.680Z,17.07
2016-07-26T03:33:07.697Z,17.17
2016-07-26T03:34:07.613Z,17.03
2016-07-26T03:35:07.698Z,17.05
2016-07-26T03:36:07.690Z,17.1
2016-07-26T03:37:07.685Z,17.06
2016-07-26T03:38:07.694Z,17.02
2016-07-26T03:39:07.696Z,16.97
2016-07-26T03:40:07.708Z,17.03
2016-07-26T03:41:07.697Z,17.03
2016-07-26T03:42:07.636Z,17.05
2016-07-26T03:43:07.659Z,17.05
2016-07-26T03:44:07.730Z,16.95
2016-07-26T03:45:07.652Z,16.95
2016-07-26T03:46:07.808Z,16.99
2016-07-26T03:47:07.714Z,16.94
2016-07-26T03:48:07.731Z,16.91
2016-07-26T03:49:07.736Z,16.88
2016-07-26T03:50:07.734Z,16.9
2016-07-26T03:51:07.671Z,16.91
2016-07-26T03:52:07.747Z,16.9
2016-07-26T03:53:07.678Z,16.94
2016-07-26T03:54:07.751Z,16.91
2016-07-26T03:55:07.745Z,16.95
2016-07-26T03:56:07.672Z,16.95
2016-07-26T03:57:07.670Z,16.91
2016-07-26T03:58:07.820Z,16.91
2016-07-26T03:59:07.757Z,16.94
2016-07-26T04:00:07.669Z,16.94
2016-07-26T04:01:07.676Z,16.88
2016-07-26T04:02:07.715Z,16.91
2016-07-26T04:03:07.775Z,16.87
2016-07-26T04:04:07.697Z,16.94
2016-07-26T04:05:07.772Z,16.91
2016-07-26T04:06:07.788Z,16.87
2016-07-26T04:07:07.706Z,16.88
2016-07-26T04:08:07.799Z,16.88
2016-07-26T04:09:07.877Z,16.84
2016-07-26T04:10:07.717Z,16.85
2016-07-26T04:11:07.928Z,16.88
2016-07-26T04:12:07.781Z,16.84
2016-07-26T04:13:07.809Z,16.77
2016-07-26T04:14:07.865Z,16.82
2016-07-26T04:15:07.833Z,16.88
2016-07-26T04:16:07.808Z,16.77
2016-07-26T04:17:07.816Z,16.9
2016-07-26T04:18:07.835Z,16.88
2016-07-26T04:19:07.822Z,16.87
2016-07-26T04:20:07.740Z,16.8
2016-07-26T04:21:07.888Z,16.8
2016-07-26T04:22:07.779Z,16.8
2016-07-26T04:23:07.895Z,16.81
2016-07-26T04:24:07.818Z,16.77
2016-07-26T04:25:07.759Z,16.81
2016-07-26T04:26:07.911Z,16.77
2016-07-26T04:27:07.863Z,16.72
2016-07-26T04:28:07.761Z,16.73
2016-07-26T04:29:07.834Z,16.69
2016-07-26T04:30:07.904Z,16.73
2016-07-26T04:31:07.841Z,16.74
2016-07-26T04:32:07.784Z,16.67
2016-07-26T04:33:07.890Z,16.66
2016-07-26T04:34:07.994Z,16.73
2016-07-26T04:35:07.782Z,16.59
2016-07-26T04:36:07.932Z,16.69
2016-07-26T04:37:07.778Z,16.66
2016-07-26T04:38:07.916Z,16.66
2016-07-26T04:39:07.860Z,16.66
2016-07-26T04:40:07.933Z,16.54
2016-07-26T04:41:07.836Z,16.58
2016-07-26T04:42:07.887Z,16.59
2016-07-26T04:43:07.952Z,16.54
2016-07-26T04:44:07.883Z,16.58
2016-07-26T04:45:07.874Z,16.58
2016-07-26T04:46:07.908Z,16.59
2016-07-26T04:47:07.901Z,16.7
2016-07-26T04:48:07.994Z,16.72
2016-07-26T04:49:07.888Z,16.63
2016-07-26T04:50:07.916Z,16.69
2016-07-26T04:51:07.832Z,16.72
2016-07-26T04:52:07.922Z,16.72
2016-07-26T04:53:07.848Z,16.74
2016-07-26T04:54:07.913Z,16.76
2016-07-26T04:55:07.841Z,16.72
2016-07-26T04:56:07.846Z,16.82
2016-07-26T04:57:08.671Z,16.87
2016-07-26T04:58:07.996Z,16.91
2016-07-26T04:59:07.857Z,16.95
2016-07-26T05:00:07.943Z,17.06
2016-07-26T05:01:07.853Z,17.02
2016-07-26T05:02:07.945Z,17.05
2016-07-26T05:03:07.872Z,17.03
2016-07-26T05:04:07.862Z,17.09
2016-07-26T05:05:07.966Z,17.09
2016-07-26T05:06:07.951Z,17.07
2016-07-26T05:07:07.938Z,17.07
2016-07-26T05:08:07.865Z,17.1
2016-07-26T05:09:07.970Z,17.2
2016-07-26T05:10:08.053Z,17.27
2016-07-26T05:11:08.087Z,17.2
2016-07-26T05:12:07.960Z,17.24
2016-07-26T05:13:07.968Z,17.32
2016-07-26T05:14:08.044Z,17.35
2016-07-26T05:15:07.978Z,17.36
2016-07-26T05:16:07.974Z,17.35
2016-07-26T05:17:08.059Z,17.38
2016-07-26T05:18:08.045Z,17.35
2016-07-26T05:19:07.983Z,17.39
2016-07-26T05:20:07.999Z,17.46
2016-07-26T05:21:07.926Z,17.4
2016-07-26T05:22:08.070Z,17.39
2016-07-26T05:23:08.071Z,17.47
2016-07-26T05:24:08.001Z,17.39
2016-07-26T05:25:08.002Z,17.42
2016-07-26T05:26:08.024Z,17.4
2016-07-26T05:27:07.936Z,17.43
2016-07-26T05:28:08.036Z,17.45
2016-07-26T05:29:08.006Z,17.5
2016-07-26T05:30:08.006Z,17.54
2016-07-26T05:31:08.012Z,17.66
2016-07-26T05:32:07.943Z,17.66
2016-07-26T05:33:07.954Z,17.69
2016-07-26T05:34:08.033Z,17.74
2016-07-26T05:35:07.958Z,17.74
2016-07-26T05:36:07.946Z,17.77
2016-07-26T05:37:08.036Z,17.79
2016-07-26T05:38:08.044Z,17.8
2016-07-26T05:39:08.122Z,17.88
2016-07-26T05:40:08.051Z,17.87
2016-07-26T05:41:07.979Z,17.92
2016-07-26T05:42:08.048Z,17.92
2016-07-26T05:43:08.044Z,17.98
2016-07-26T05:44:08.071Z,17.96
2016-07-26T05:45:08.000Z,18.06
2016-07-26T05:46:08.129Z,18.1
2016-07-26T05:47:07.992Z,18.14
2016-07-26T05:48:08.066Z,18.21
2016-07-26T05:49:08.081Z,18.17
2016-07-26T05:50:08.085Z,18.32
2016-07-26T05:51:08.103Z,18.27
2016-07-26T05:52:08.079Z,18.24
2016-07-26T05:53:08.100Z,18.2
2016-07-26T05:54:08.195Z,18.23
2016-07-26T05:55:08.090Z,18.14
2016-07-26T05:56:08.129Z,18.24
2016-07-26T05:57:08.087Z,18.19
2016-07-26T05:58:08.086Z,18.29
2016-07-26T05:59:08.204Z,18.39
2016-07-26T06:00:08.184Z,18.5
2016-07-26T06:01:08.187Z,18.42
2016-07-26T06:02:08.030Z,18.39
2016-07-26T06:03:08.037Z,18.51
2016-07-26T06:04:08.038Z,18.57
2016-07-26T06:05:08.036Z,18.51
2016-07-26T06:06:08.182Z,18.44
2016-07-26T06:07:08.208Z,18.51
2016-07-26T06:08:08.203Z,18.44
2016-07-26T06:09:08.048Z,18.51
2016-07-26T06:10:08.193Z,18.54
2016-07-26T06:11:08.195Z,18.59
2016-07-26T06:12:08.201Z,18.65
2016-07-26T06:13:08.345Z,18.72
2016-07-26T06:14:08.349Z,18.76
2016-07-26T06:15:08.052Z,18.76
2016-07-26T06:16:08.217Z,18.94
2016-07-26T06:17:08.236Z,18.97
2016-07-26T06:18:08.228Z,19.06
2016-07-26T06:19:08.387Z,19.27
2016-07-26T06:20:08.230Z,19.31
2016-07-26T06:21:08.089Z,19.46
2016-07-26T06:22:08.246Z,19.38
2016-07-26T06:23:08.229Z,19.49
2016-07-26T06:24:08.248Z,19.52
2016-07-26T06:25:08.227Z,19.74
2016-07-26T06:26:08.269Z,20.04
2016-07-26T06:27:08.107Z,20.3
2016-07-26T06:28:08.246Z,20.34
2016-07-26T06:29:08.424Z,20.48
2016-07-26T06:30:08.120Z,20.6
2016-07-26T06:31:08.127Z,20.67
2016-07-26T06:32:08.283Z,20.38
2016-07-26T06:33:08.257Z,20.23
2016-07-26T06:34:08.289Z,20.25
2016-07-26T06:35:08.154Z,20.23
2016-07-26T06:36:08.275Z,20.27
2016-07-26T06:37:08.124Z,20.53
2016-07-26T06:38:08.460Z,20.64
2016-07-26T06:39:08.466Z,20.63
2016-07-26T06:40:08.425Z,20.4
2016-07-26T06:41:08.448Z,20.3
2016-07-26T06:42:08.312Z,20.32
2016-07-26T06:43:08.295Z,20.49
2016-07-26T06:44:08.289Z,20.88
2016-07-26T06:45:08.451Z,21.09
2016-07-26T06:46:08.155Z,21.16
2016-07-26T06:47:08.307Z,21.01
2016-07-26T06:48:08.332Z,20.83
2016-07-26T06:49:08.304Z,20.66
2016-07-26T06:50:08.163Z,20.38
2016-07-26T06:51:08.453Z,20.34
2016-07-26T06:52:08.175Z,20.4
2016-07-26T06:53:08.346Z,20.63
2016-07-26T06:54:08.370Z,20.68
2016-07-26T06:55:08.465Z,20.72
2016-07-26T06:56:08.185Z,20.82
2016-07-26T06:57:08.194Z,20.96
2016-07-26T06:58:08.518Z,20.76
2016-07-26T06:59:08.199Z,20.82
2016-07-26T07:00:08.361Z,20.61
2016-07-26T07:01:08.230Z,20.56
2016-07-26T07:02:08.259Z,20.72
2016-07-26T07:03:08.237Z,20.67
2016-07-26T07:04:08.221Z,20.6
2016-07-26T07:05:08.361Z,20.63
2016-07-26T07:06:08.531Z,20.64
2016-07-26T07:07:08.356Z,20.98
2016-07-26T07:08:08.239Z,20.93
2016-07-26T07:09:08.350Z,20.98
2016-07-26T07:10:08.376Z,21.12
2016-07-26T07:11:08.391Z,21.09
2016-07-26T07:12:08.640Z,21.64
2016-07-26T07:13:08.825Z,22.15
2016-07-26T07:14:08.555Z,22.15
2016-07-26T07:15:08.383Z,22.3
2016-07-26T07:16:08.541Z,22.7
2016-07-26T07:17:08.522Z,23.04
2016-07-26T07:18:08.446Z,22.66
2016-07-26T07:19:08.264Z,22.38
2016-07-26T07:20:08.679Z,21.64
2016-07-26T07:21:08.559Z,21.3
2016-07-26T07:22:08.339Z,21.33
2016-07-26T07:23:09.099Z,21.45
2016-07-26T07:24:08.267Z,21.62
2016-07-26T07:25:08.303Z,21.85
2016-07-26T07:26:08.412Z,22.05
2016-07-26T07:27:08.449Z,22.42
2016-07-26T07:28:08.631Z,22.57
2016-07-26T07:29:08.450Z,22.79
2016-07-26T07:30:08.678Z,22.85
2016-07-26T07:31:08.348Z,22.51
2016-07-26T07:32:08.611Z,22.16
2016-07-26T07:33:08.547Z,22.44
2016-07-26T07:34:08.519Z,22.61
2016-07-26T07:35:08.479Z,22.69
2016-07-26T07:36:08.535Z,22.73
2016-07-26T07:37:08.458Z,22.38
2016-07-26T07:38:08.547Z,22.41
2016-07-26T07:39:08.342Z,22.63
2016-07-26T07:40:08.677Z,22.91
2016-07-26T07:41:08.509Z,23.34
2016-07-26T07:42:08.601Z,23.42
2016-07-26T07:43:08.390Z,22.96
2016-07-26T07:44:08.602Z,23.06
2016-07-26T07:45:08.631Z,23.15
2016-07-26T07:46:08.383Z,23.25
2016-07-26T07:47:08.394Z,23.12
2016-07-26T07:48:08.522Z,23
2016-07-26T07:49:08.401Z,23.26
2016-07-26T07:50:08.560Z,22.91
2016-07-26T07:51:08.689Z,22.82
2016-07-26T07:52:08.655Z,22.41
2016-07-26T07:53:08.515Z,22.23
2016-07-26T07:54:08.762Z,22.05
2016-07-26T07:55:08.364Z,22.12
2016-07-26T07:56:08.730Z,22.42
2016-07-26T07:57:08.588Z,22.76
2016-07-26T07:58:08.382Z,23.06
2016-07-26T07:59:08.670Z,23.42
2016-07-26T08:00:08.512Z,23.1
2016-07-26T08:01:11.211Z,22.48
2016-07-26T08:02:08.567Z,22.3
2016-07-26T08:03:08.403Z,22.31
2016-07-26T08:04:08.587Z,22.11
2016-07-26T08:05:08.646Z,22.07
2016-07-26T08:06:08.449Z,22.42
2016-07-26T08:07:09.515Z,22.46
2016-07-26T08:08:08.601Z,22.82
2016-07-26T08:09:08.431Z,22.85
2016-07-26T08:10:08.401Z,22.64
2016-07-26T08:11:08.558Z,22.52
2016-07-26T08:12:08.713Z,22.88
2016-07-26T08:13:08.507Z,23.34
2016-07-26T08:14:09.411Z,23.66
2016-07-26T08:15:08.980Z,23.94
2016-07-26T08:16:08.721Z,24.75
2016-07-26T08:17:08.578Z,25.54
2016-07-26T08:18:09.049Z,26.15
2016-07-26T08:19:08.660Z,26.41
2016-07-26T08:20:08.646Z,26.19
2016-07-26T08:21:08.779Z,25.42
2016-07-26T08:22:08.616Z,25.01
2016-07-26T08:23:08.658Z,25.11
2016-07-26T08:24:08.802Z,25.15
2016-07-26T08:25:08.604Z,24.67
2016-07-26T08:26:09.317Z,25.02
2016-07-26T08:27:08.495Z,25.14
2016-07-26T08:28:08.749Z,24.03
2016-07-26T08:29:08.531Z,24.03
2016-07-26T08:30:08.702Z,23.26
2016-07-26T08:31:08.820Z,22.82
2016-07-26T08:32:08.612Z,22.84
2016-07-26T08:33:08.623Z,23.03
2016-07-26T08:34:08.647Z,23.44
2016-07-26T08:35:08.467Z,23.53
2016-07-26T08:36:08.763Z,23.79
2016-07-26T08:37:08.524Z,23.7
2016-07-26T08:38:08.741Z,23.63
2016-07-26T08:39:08.634Z,23.87
2016-07-26T08:40:08.571Z,24.02
2016-07-26T08:41:08.495Z,24.22
2016-07-26T08:42:08.654Z,24.26
2016-07-26T08:43:08.690Z,24.07
2016-07-26T08:44:08.779Z,24.03
2016-07-26T08:45:08.785Z,24.08
2016-07-26T08:46:08.846Z,24.36
2016-07-26T08:47:08.739Z,24.67
2016-07-26T08:48:08.580Z,25.11
2016-07-26T08:49:08.659Z,25.91
2016-07-26T08:50:08.656Z,25.93
2016-07-26T08:51:08.804Z,25.86
2016-07-26T08:52:08.738Z,25.62
2016-07-26T08:53:08.716Z,25.64
2016-07-26T08:54:09.522Z,25.47
2016-07-26T08:55:08.809Z,25.51
2016-07-26T08:56:08.740Z,25.76
2016-07-26T08:57:08.676Z,25.62
2016-07-26T08:58:08.825Z,25.51
2016-07-26T08:59:08.711Z,25.39
2016-07-26T09:00:08.699Z,25.27
2016-07-26T09:01:08.553Z,25.22
2016-07-26T09:02:09.429Z,25.19
2016-07-26T09:03:08.712Z,25.24
2016-07-26T09:04:08.720Z,25.6
2016-07-26T09:05:08.712Z,26.27
2016-07-26T09:06:08.771Z,26.31
2016-07-26T09:07:08.882Z,26.15
2016-07-26T09:08:08.916Z,25.89
2016-07-26T09:09:10.567Z,26.3
2016-07-26T09:10:11.469Z,26.57
2016-07-26T09:11:11.237Z,26.99
2016-07-26T09:12:08.810Z,26.47
2016-07-26T09:13:08.895Z,26.26
2016-07-26T09:14:09.248Z,26.19
2016-07-26T09:15:08.741Z,26.39
2016-07-26T09:16:08.897Z,25.96
2016-07-26T09:17:08.931Z,25.76
2016-07-26T09:18:08.766Z,25.48
2016-07-26T09:19:08.611Z,25.12
2016-07-26T09:20:10.668Z,24.22
2016-07-26T09:21:10.063Z,24.26
2016-07-26T09:22:12.098Z,24.21
2016-07-26T09:23:09.024Z,24.32
2016-07-26T09:24:09.100Z,24.29
2016-07-26T09:25:09.253Z,24.34
2016-07-26T09:26:09.467Z,24.34
2016-07-26T09:27:09.936Z,24.34
2016-07-26T09:28:09.000Z,24.19
2016-07-26T09:29:08.743Z,24.61
2016-07-26T09:30:08.952Z,24.86
2016-07-26T09:31:08.966Z,24.77
2016-07-26T09:32:08.653Z,24.85
2016-07-26T09:33:09.002Z,25.07
2016-07-26T09:34:08.724Z,25.39
2016-07-26T09:35:08.824Z,25.66
2016-07-26T09:36:08.706Z,25.93
2016-07-26T09:37:10.021Z,25.99
2016-07-26T09:38:08.954Z,25.97
2016-07-26T09:39:08.663Z,25.33
2016-07-26T09:40:08.818Z,25.01
2016-07-26T09:41:08.848Z,24.83
2016-07-26T09:42:08.795Z,25.17
2016-07-26T09:43:08.827Z,25.78
2016-07-26T09:44:08.984Z,25.88
2016-07-26T09:45:08.845Z,25.08
2016-07-26T09:46:09.032Z,25.27
2016-07-26T09:47:09.091Z,25.67
2016-07-26T09:48:08.924Z,26.6
2016-07-26T09:49:08.691Z,27.45
2016-07-26T09:50:08.701Z,27.65
2016-07-26T09:51:08.835Z,27.9
2016-07-26T09:52:08.872Z,28.11
2016-07-26T09:53:08.881Z,28.09
2016-07-26T09:54:08.888Z,27.87
2016-07-26T09:55:08.864Z,28.21
2016-07-26T09:56:08.999Z,28.53
2016-07-26T09:57:08.780Z,28.7
2016-07-26T09:58:09.079Z,28.55
2016-07-26T09:59:13.767Z,27.79
2016-07-26T10:00:08.900Z,27.34
2016-07-26T10:01:09.003Z,26.86
2016-07-26T10:02:08.887Z,26.9
2016-07-26T10:03:09.178Z,27.38
2016-07-26T10:04:08.886Z,27.89
2016-07-26T10:05:08.888Z,27.53
2016-07-26T10:06:08.899Z,27.41
2016-07-26T10:07:08.781Z,27.19
2016-07-26T10:08:08.788Z,27.04
2016-07-26T10:09:08.941Z,26.78
2016-07-26T10:10:08.914Z,26.78
2016-07-26T10:11:08.904Z,26.19
2016-07-26T10:12:08.931Z,26.41
2016-07-26T10:13:09.128Z,26.72
2016-07-26T10:14:08.981Z,27.48
2016-07-26T10:15:09.068Z,27.89
2016-07-26T10:16:08.882Z,27.52
2016-07-26T10:17:08.990Z,27.62
2016-07-26T10:18:08.923Z,27.66
2016-07-26T10:19:09.057Z,27.94
2016-07-26T10:20:08.996Z,28.45
2016-07-26T10:21:09.020Z,29.02
2016-07-26T10:22:09.373Z,30.04
2016-07-26T10:23:08.962Z,31.28
2016-07-26T10:24:08.983Z,31.58
2016-07-26T10:25:08.855Z,31.52
2016-07-26T10:26:09.122Z,31.15
2016-07-26T10:27:08.945Z,30.78
2016-07-26T10:28:08.804Z,29.88
2016-07-26T10:29:09.038Z,29.08
2016-07-26T10:30:08.971Z,28.43
2016-07-26T10:31:08.961Z,28.18
2016-07-26T10:32:09.059Z,28.21
2016-07-26T10:33:09.011Z,27.66
2016-07-26T10:34:08.923Z,27.55
2016-07-26T10:35:09.201Z,27.48
2016-07-26T10:36:09.144Z,27.99
2016-07-26T10:37:09.029Z,27.76
2016-07-26T10:38:09.045Z,27.93
2016-07-26T10:39:09.044Z,27.94
2016-07-26T10:40:09.992Z,28.23
2016-07-26T10:41:09.075Z,28.06
2016-07-26T10:42:09.020Z,27.79
2016-07-26T10:43:09.056Z,27.33
2016-07-26T10:44:09.018Z,27.84
2016-07-26T10:45:09.033Z,27.83
2016-07-26T10:46:08.868Z,27.31
2016-07-26T10:47:09.030Z,27.49
2016-07-26T10:48:09.072Z,27.66
2016-07-26T10:49:09.173Z,28.26
2016-07-26T10:50:08.930Z,28.68
2016-07-26T10:51:08.911Z,29.17
2016-07-26T10:52:09.175Z,29.35
2016-07-26T10:53:09.115Z,28.97
2016-07-26T10:54:09.027Z,29.13
2016-07-26T10:55:08.903Z,29.42
2016-07-26T10:56:08.908Z,29.2
2016-07-26T10:57:09.206Z,29.36
2016-07-26T10:58:09.037Z,29.39
2016-07-26T10:59:08.939Z,29.47
2016-07-26T11:00:09.249Z,29.72
2016-07-26T11:01:08.910Z,29.95
2016-07-26T11:02:08.909Z,30.56
2016-07-26T11:03:09.060Z,31.33
2016-07-26T11:04:09.253Z,31.98
2016-07-26T11:05:09.083Z,31.22
2016-07-26T11:06:08.926Z,31.16
2016-07-26T11:07:09.336Z,31.75
2016-07-26T11:08:08.927Z,31.77
2016-07-26T11:09:09.294Z,31.44
2016-07-26T11:10:09.253Z,30.97
2016-07-26T11:11:09.198Z,31.25
2016-07-26T11:12:08.987Z,30.86
2016-07-26T11:13:09.145Z,29.98
2016-07-26T11:14:09.272Z,29.97
2016-07-26T11:15:09.289Z,29.94
2016-07-26T11:16:09.124Z,30.16
2016-07-26T11:17:09.125Z,29.84
2016-07-26T11:18:09.339Z,30
2016-07-26T11:19:09.125Z,30.35
2016-07-26T11:21:09.121Z,31.26
2016-07-26T11:22:09.124Z,30.88
2016-07-26T11:23:09.303Z,30.54
2016-07-26T11:24:09.381Z,30.13
2016-07-26T11:25:09.297Z,30.66
2016-07-26T11:26:09.323Z,30.71
2016-07-26T11:27:09.262Z,31.13
2016-07-26T11:28:09.293Z,31.41
2016-07-26T11:29:08.995Z,31.7
2016-07-26T11:30:09.249Z,32.12
2016-07-26T11:31:09.142Z,32.47
2016-07-26T11:32:09.136Z,32.39
2016-07-26T11:33:09.320Z,32.17
2016-07-26T11:34:09.171Z,32.17
2016-07-26T11:35:09.094Z,32.32
2016-07-26T11:36:10.469Z,31.62
2016-07-26T11:38:09.055Z,29.6
2016-07-26T11:39:09.311Z,29.54
2016-07-26T11:40:09.082Z,29.73
2016-07-26T11:41:09.298Z,29.67
2016-07-26T11:42:10.163Z,29.35
2016-07-26T11:43:09.113Z,28.73
2016-07-26T11:44:09.193Z,28.57
2016-07-26T11:45:09.373Z,28.92
2016-07-26T11:46:09.254Z,29.02
2016-07-26T11:47:09.753Z,28.95
2016-07-26T11:48:09.368Z,29.01
2016-07-26T11:49:09.088Z,29.5
2016-07-26T11:50:09.472Z,29.38
2016-07-26T11:51:09.363Z,29.57
2016-07-26T11:52:09.227Z,30.02
2016-07-26T11:53:09.128Z,30.69
2016-07-26T11:54:09.813Z,31.18
2016-07-26T11:55:09.379Z,31.72
2016-07-26T11:56:09.244Z,31.9
2016-07-26T11:57:09.329Z,31.74
2016-07-26T11:58:09.258Z,31.34
2016-07-26T11:59:09.277Z,30.84
2016-07-26T12:00:09.418Z,30.11
2016-07-26T12:01:09.161Z,30.03
2016-07-26T12:02:09.249Z,30.21
2016-07-26T12:03:09.117Z,30.47
2016-07-26T12:04:09.446Z,30.77
2016-07-26T12:05:09.378Z,30.86
2016-07-26T12:06:09.384Z,31.15
2016-07-26T12:07:09.248Z,31.08
2016-07-26T12:08:09.925Z,31.01
2016-07-26T12:09:09.437Z,30.66
2016-07-26T12:10:09.156Z,30.11
2016-07-26T12:11:09.368Z,30.03
2016-07-26T12:12:09.276Z,30.02
2016-07-26T12:13:09.447Z,29.88
2016-07-26T12:14:09.337Z,29.08
2016-07-26T12:15:09.279Z,29.06
2016-07-26T12:16:09.135Z,29.21
2016-07-26T12:17:10.038Z,29.4
2016-07-26T12:18:09.508Z,29.5
2016-07-26T12:19:09.148Z,29.52
2016-07-26T12:20:09.156Z,29.45
2016-07-26T12:21:10.181Z,28.7
2016-07-26T12:22:09.471Z,28.79
2016-07-26T12:23:09.324Z,29.24
2016-07-26T12:24:09.159Z,29.42
2016-07-26T12:25:09.220Z,29.63
2016-07-26T12:26:09.304Z,29.48
2016-07-26T12:27:09.382Z,29.82
2016-07-26T12:28:09.201Z,29.7
2016-07-26T12:29:09.478Z,30.19
2016-07-26T12:30:09.328Z,30.26
2016-07-26T12:31:09.529Z,30.75
2016-07-26T12:32:09.899Z,30.99
2016-07-26T12:33:09.553Z,30.96
2016-07-26T12:34:09.365Z,31.45
2016-07-26T12:35:09.361Z,32.09
2016-07-26T12:36:09.333Z,32.83
2016-07-26T12:37:09.217Z,33.05
2016-07-26T12:38:09.501Z,32.81
2016-07-26T12:39:09.638Z,32.12
2016-07-26T12:40:09.489Z,32.12
2016-07-26T12:41:09.503Z,31.41
2016-07-26T12:42:09.428Z,31.34
2016-07-26T12:43:09.375Z,30.93
2016-07-26T12:44:09.376Z,30.29
2016-07-26T12:45:09.370Z,30.35
2016-07-26T12:46:09.230Z,30.47
2016-07-26T12:47:09.524Z,30.39
2016-07-26T12:48:09.385Z,29.45
2016-07-26T12:49:09.247Z,29.24
2016-07-26T12:50:09.543Z,29.29
2016-07-26T12:51:09.529Z,29.61
2016-07-26T12:52:09.271Z,29.54
2016-07-26T12:53:09.541Z,30
2016-07-26T12:54:09.392Z,30.47
2016-07-26T12:55:09.248Z,29.65
2016-07-26T12:56:09.565Z,30.04
2016-07-26T12:57:09.402Z,30.73